createdAt,value
2017-01-27T00:01:10.252Z,1.3
2017-01-27T00:02:24.111Z,1.3
2017-01-27T00:03:38.274Z,1.31
2017-01-27T00:04:51.731Z,1.31
2017-01-27T00:06:06.319Z,1.25
2017-01-27T00:07:19.763Z,1.22
2017-01-27T00:08:33.701Z,1.22
2017-01-27T00:09:47.193Z,1.16
2017-01-27T00:11:00.970Z,1.13
2017-01-27T00:12:14.750Z,1.16
2017-01-27T00:13:28.252Z,1.12
2017-01-27T00:14:41.712Z,1.16
2017-01-27T00:15:55.614Z,1.12
2017-01-27T00:17:09.504Z,1.07
2017-01-27T00:18:23.304Z,0.95
2017-01-27T00:19:37.202Z,1.1
2017-01-27T00:20:50.617Z,1.09
2017-01-27T00:22:04.563Z,1.1
2017-01-27T00:23:18.436Z,1.1
2017-01-27T00:24:32.817Z,1.06
2017-01-27T00:25:46.757Z,1.06
2017-01-27T00:27:00.278Z,1.09
2017-01-27T00:28:13.821Z,1.07
2017-01-27T00:29:27.370Z,0.96
2017-01-27T00:30:41.112Z,0.89
2017-01-27T00:31:54.945Z,0.67
2017-01-27T00:33:08.409Z,0.48
2017-01-27T00:34:22.336Z,0.29
2017-01-27T00:35:38.775Z,0.29
2017-01-27T00:36:52.680Z,0.15
2017-01-27T00:38:06.522Z,0.05
2017-01-27T00:39:19.981Z,0
2017-01-27T00:40:33.960Z,-0.09
2017-01-27T00:41:47.413Z,-0.15
2017-01-27T00:43:01.189Z,-0.21
2017-01-27T00:44:14.665Z,-0.21
2017-01-27T00:45:28.237Z,-0.35
2017-01-27T00:46:42.111Z,-0.36
2017-01-27T00:47:55.541Z,-0.42
2017-01-27T00:49:11.442Z,-0.31
2017-01-27T00:50:25.360Z,-0.33
2017-01-27T00:51:39.298Z,-0.27
2017-01-27T00:52:53.167Z,-0.12
2017-01-27T00:54:06.636Z,-0.02
2017-01-27T00:55:20.383Z,0.06
2017-01-27T00:56:33.914Z,0.16
2017-01-27T00:57:47.368Z,0.3
2017-01-27T00:59:00.891Z,0.39
2017-01-27T01:00:14.844Z,0.39
2017-01-27T01:01:29.022Z,0.26
2017-01-27T01:02:42.906Z,0.18
2017-01-27T01:03:56.885Z,0.13
2017-01-27T01:05:10.787Z,0.26
2017-01-27T01:06:24.275Z,0.26
2017-01-27T01:07:38.016Z,0.24
2017-01-27T01:08:51.908Z,0.2
2017-01-27T01:10:05.917Z,0.26
2017-01-27T01:11:19.871Z,0.29
2017-01-27T01:12:33.832Z,0.45
2017-01-27T01:13:47.558Z,0.42
2017-01-27T01:15:01.081Z,0.47
2017-01-27T01:16:14.669Z,0.55
2017-01-27T01:17:43.055Z,0.49
2017-01-27T01:18:56.976Z,0.19
2017-01-27T01:20:11.108Z,0.19
2017-01-27T01:21:24.988Z,-0.02
2017-01-27T01:22:38.933Z,-0.05
2017-01-27T01:23:52.456Z,-0.05
2017-01-27T01:25:05.951Z,-0.03
2017-01-27T01:26:19.698Z,0.02
2017-01-27T01:27:33.271Z,-0.1
2017-01-27T01:28:47.079Z,-0.06
2017-01-27T01:30:00.626Z,-0.12
2017-01-27T01:31:14.132Z,-0.05
2017-01-27T01:32:27.970Z,-0.1
2017-01-27T01:33:41.555Z,-0.12
2017-01-27T01:34:55.162Z,-0.12
2017-01-27T01:36:08.705Z,-0.12
2017-01-27T01:37:22.209Z,-0.09
2017-01-27T01:38:36.149Z,-0.07
2017-01-27T01:39:50.242Z,-0.09
2017-01-27T01:41:04.158Z,-0.13
2017-01-27T01:42:17.705Z,-0.2
2017-01-27T01:43:31.265Z,-0.2
2017-01-27T01:44:46.776Z,-0.17
2017-01-27T01:46:00.482Z,-0.18
2017-01-27T01:47:14.395Z,-0.2
2017-01-27T01:48:27.906Z,-0.38
2017-01-27T01:49:41.444Z,-0.44
2017-01-27T01:50:55.347Z,-0.49
2017-01-27T01:52:08.875Z,-0.75
2017-01-27T01:53:22.581Z,-0.72
2017-01-27T01:54:36.168Z,-0.67
2017-01-27T01:55:49.778Z,-0.84
2017-01-27T01:57:04.145Z,-0.82
2017-01-27T01:58:17.716Z,-0.96
2017-01-27T01:59:31.299Z,-0.87
2017-01-27T02:00:45.107Z,-0.85
2017-01-27T02:01:58.690Z,-0.89
2017-01-27T02:03:13.021Z,-0.84
2017-01-27T02:04:27.045Z,-0.87
2017-01-27T02:05:42.713Z,-0.99
2017-01-27T02:06:56.408Z,-0.96
2017-01-27T02:08:09.890Z,-0.94
2017-01-27T02:09:24.669Z,-0.97
2017-01-27T02:10:38.844Z,-0.97
2017-01-27T02:11:52.485Z,-1.07
2017-01-27T02:13:06.508Z,-1.14
2017-01-27T02:14:20.279Z,-1.01
2017-01-27T02:15:34.624Z,-1
2017-01-27T02:16:48.590Z,-0.96
2017-01-27T02:18:02.907Z,-0.94
2017-01-27T02:19:16.521Z,-0.84
2017-01-27T02:20:29.930Z,-0.72
2017-01-27T02:21:44.915Z,-0.64
2017-01-27T02:22:58.442Z,-0.53
2017-01-27T02:24:12.809Z,-0.53
2017-01-27T02:25:26.293Z,-0.54
2017-01-27T02:26:39.763Z,-0.44
2017-01-27T02:27:53.962Z,-0.44
2017-01-27T02:29:08.507Z,-0.33
2017-01-27T02:30:22.106Z,-0.18
2017-01-27T02:31:35.599Z,-0.18
2017-01-27T02:32:49.210Z,-0.09
2017-01-27T02:34:02.961Z,-0.2
2017-01-27T02:35:16.804Z,-0.17
2017-01-27T02:36:30.673Z,-0.24
2017-01-27T02:37:44.312Z,-0.2
2017-01-27T02:38:57.839Z,-0.31
2017-01-27T02:40:11.954Z,-0.27
2017-01-27T02:41:25.412Z,-0.2
2017-01-27T02:42:41.736Z,-0.13
2017-01-27T02:43:55.687Z,-0.07
2017-01-27T02:45:09.188Z,-0.3
2017-01-27T02:46:23.534Z,-0.35
2017-01-27T02:47:37.022Z,-0.54
2017-01-27T02:48:50.514Z,-0.53
2017-01-27T02:50:04.084Z,-0.74
2017-01-27T02:51:17.509Z,-0.74
2017-01-27T02:52:31.230Z,-0.85
2017-01-27T02:53:44.907Z,-0.93
2017-01-27T02:54:58.346Z,-0.96
2017-01-27T02:56:11.898Z,-1.04
2017-01-27T02:57:25.351Z,-0.96
2017-01-27T02:58:40.551Z,-1.11
2017-01-27T02:59:54.061Z,-0.97
2017-01-27T03:01:07.572Z,-0.97
2017-01-27T03:02:21.192Z,-0.93
2017-01-27T03:03:34.654Z,-0.81
2017-01-27T03:04:48.432Z,-0.8
2017-01-27T03:06:01.873Z,-0.78
2017-01-27T03:07:15.470Z,-0.84
2017-01-27T03:08:29.403Z,-0.8
2017-01-27T03:09:42.956Z,-0.72
2017-01-27T03:10:57.111Z,-0.72
2017-01-27T03:12:10.556Z,-0.75
2017-01-27T03:13:24.779Z,-0.84
2017-01-27T03:14:38.257Z,-0.84
2017-01-27T03:15:52.176Z,-0.94
2017-01-27T03:17:06.172Z,-0.96
2017-01-27T03:18:19.622Z,-1.14
2017-01-27T03:19:33.095Z,-1.12
2017-01-27T03:20:46.661Z,-1.07
2017-01-27T03:22:02.300Z,-1.11
2017-01-27T03:23:16.129Z,-1.15
2017-01-27T03:24:30.007Z,-1.07
2017-01-27T03:25:43.588Z,-1.03
2017-01-27T03:26:57.025Z,-1.07
2017-01-27T03:28:10.499Z,-1.07
2017-01-27T03:29:24.257Z,-1.07
2017-01-27T03:30:37.745Z,-1.11
2017-01-27T03:31:51.159Z,-0.96
2017-01-27T03:33:04.585Z,-0.96
2017-01-27T03:34:17.988Z,-1
2017-01-27T03:35:31.716Z,-1.01
2017-01-27T03:36:45.251Z,-1.01
2017-01-27T03:37:58.812Z,-0.87
2017-01-27T03:39:12.355Z,-0.97
2017-01-27T03:40:25.796Z,-0.89
2017-01-27T03:41:39.980Z,-0.91
2017-01-27T03:42:53.457Z,-0.94
2017-01-27T03:44:06.910Z,-0.82
2017-01-27T03:45:20.893Z,-0.93
2017-01-27T03:46:34.590Z,-0.94
2017-01-27T03:47:48.472Z,-0.94
2017-01-27T03:49:01.944Z,-0.96
2017-01-27T03:50:15.417Z,-0.77
2017-01-27T03:51:29.172Z,-0.82
2017-01-27T03:52:42.711Z,-0.89
2017-01-27T03:53:56.574Z,-0.89
2017-01-27T03:55:11.241Z,-0.84
2017-01-27T03:56:24.950Z,-0.81
2017-01-27T03:57:45.194Z,-0.7
2017-01-27T03:58:59.494Z,-0.74
2017-01-27T04:00:13.293Z,-0.63
2017-01-27T04:01:26.743Z,-0.66
2017-01-27T04:02:40.310Z,-0.66
2017-01-27T04:03:54.165Z,-0.62
2017-01-27T04:05:08.088Z,-0.75
2017-01-27T04:06:22.312Z,-0.75
2017-01-27T04:07:35.830Z,-0.74
2017-01-27T04:08:49.445Z,-0.7
2017-01-27T04:10:04.133Z,-0.67
2017-01-27T04:11:17.803Z,-0.62
2017-01-27T04:12:31.505Z,-0.62
2017-01-27T04:13:45.000Z,-0.56
2017-01-27T04:14:58.614Z,-0.56
2017-01-27T04:16:12.127Z,-0.6
2017-01-27T04:17:25.543Z,-0.53
2017-01-27T04:18:39.578Z,-0.59
2017-01-27T04:19:53.435Z,-0.56
2017-01-27T04:21:07.228Z,-0.49
2017-01-27T04:22:21.278Z,-0.6
2017-01-27T04:23:34.760Z,-0.56
2017-01-27T04:24:49.324Z,-0.64
2017-01-27T04:26:02.901Z,-0.62
2017-01-27T04:27:16.389Z,-0.6
2017-01-27T04:28:29.835Z,-0.67
2017-01-27T04:29:43.382Z,-0.7
2017-01-27T04:30:58.035Z,-0.66
2017-01-27T04:32:11.637Z,-0.75
2017-01-27T04:33:25.492Z,-0.67
2017-01-27T04:34:40.149Z,-0.62
2017-01-27T04:35:53.540Z,-0.56
2017-01-27T04:37:07.330Z,-0.66
2017-01-27T04:38:22.988Z,-0.67
2017-01-27T04:39:36.578Z,-0.67
2017-01-27T04:40:50.040Z,-0.66
2017-01-27T04:42:03.540Z,-0.74
2017-01-27T04:43:17.373Z,-0.67
2017-01-27T04:44:30.859Z,-0.69
2017-01-27T04:45:44.541Z,-0.63
2017-01-27T04:46:58.052Z,-0.64
2017-01-27T04:48:11.536Z,-0.67
2017-01-27T04:49:25.446Z,-0.67
2017-01-27T04:50:39.061Z,-0.67
2017-01-27T04:51:52.538Z,-0.66
2017-01-27T04:53:06.022Z,-0.7
2017-01-27T04:54:19.470Z,-0.67
2017-01-27T04:55:33.775Z,-0.57
2017-01-27T04:56:47.224Z,-0.64
2017-01-27T04:58:00.749Z,-0.64
2017-01-27T04:59:14.170Z,-0.74
2017-01-27T05:00:27.675Z,-0.7
2017-01-27T05:01:41.693Z,-0.7
2017-01-27T05:02:55.131Z,-0.74
2017-01-27T05:04:08.918Z,-0.75
2017-01-27T05:05:22.518Z,-0.7
2017-01-27T05:06:36.297Z,-0.7
2017-01-27T05:07:50.807Z,-0.72
2017-01-27T05:09:04.520Z,-0.72
2017-01-27T05:10:18.337Z,-0.64
2017-01-27T05:11:31.856Z,-0.77
2017-01-27T05:12:45.439Z,-0.74
2017-01-27T05:13:59.184Z,-0.78
2017-01-27T05:15:12.672Z,-0.77
2017-01-27T05:16:26.169Z,-0.81
2017-01-27T05:17:39.626Z,-0.87
2017-01-27T05:18:53.098Z,-0.78
2017-01-27T05:20:07.217Z,-0.81
2017-01-27T05:21:21.597Z,-0.99
2017-01-27T05:22:36.433Z,-0.94
2017-01-27T05:23:49.926Z,-0.8
2017-01-27T05:25:03.369Z,-0.81
2017-01-27T05:26:17.195Z,-0.8
2017-01-27T05:27:31.697Z,-0.82
2017-01-27T05:28:45.724Z,-0.91
2017-01-27T05:29:59.173Z,-0.94
2017-01-27T05:31:13.037Z,-0.85
2017-01-27T05:32:27.658Z,-0.93
2017-01-27T05:33:41.258Z,-0.67
2017-01-27T05:34:54.711Z,-0.53
2017-01-27T05:36:08.259Z,-0.42
2017-01-27T05:37:21.731Z,-0.35
2017-01-27T05:38:35.631Z,-0.39
2017-01-27T05:39:49.922Z,-0.48
2017-01-27T05:41:04.391Z,-0.38
2017-01-27T05:42:18.546Z,-0.31
2017-01-27T05:43:33.523Z,-0.31
2017-01-27T05:44:47.304Z,-0.38
2017-01-27T05:46:00.808Z,-0.41
2017-01-27T05:47:14.277Z,-0.23
2017-01-27T05:48:27.790Z,-0.15
2017-01-27T05:49:41.606Z,-0.15
2017-01-27T05:50:55.397Z,-0.2
2017-01-27T05:52:09.332Z,-0.28
2017-01-27T05:53:23.263Z,-0.23
2017-01-27T05:54:39.515Z,-0.28
2017-01-27T05:55:53.073Z,-0.38
2017-01-27T05:57:07.060Z,-0.33
2017-01-27T05:58:20.974Z,-0.41
2017-01-27T05:59:34.952Z,-0.38
2017-01-27T06:00:48.592Z,-0.44
2017-01-27T06:02:02.322Z,-0.54
2017-01-27T06:03:16.275Z,-0.41
2017-01-27T06:04:31.164Z,-0.42
2017-01-27T06:05:44.646Z,-0.49
2017-01-27T06:06:58.718Z,-0.41
2017-01-27T06:08:12.175Z,-0.48
2017-01-27T06:09:25.984Z,-0.54
2017-01-27T06:10:40.287Z,-0.54
2017-01-27T06:11:55.792Z,-0.57
2017-01-27T06:13:09.694Z,-0.62
2017-01-27T06:14:23.297Z,-0.66
2017-01-27T06:15:37.281Z,-0.74
2017-01-27T06:16:50.716Z,-0.63
2017-01-27T06:18:04.586Z,-0.54
2017-01-27T06:19:18.111Z,-0.62
2017-01-27T06:20:31.660Z,-0.59
2017-01-27T06:21:45.398Z,-0.54
2017-01-27T06:22:58.942Z,-0.41
2017-01-27T06:24:12.433Z,-0.48
2017-01-27T06:25:26.010Z,-0.51
2017-01-27T06:26:39.873Z,-0.57
2017-01-27T06:27:54.067Z,-0.59
2017-01-27T06:29:07.595Z,-0.64
2017-01-27T06:30:21.116Z,-0.62
2017-01-27T06:31:35.473Z,-0.59
2017-01-27T06:32:48.928Z,-0.6
2017-01-27T06:34:03.069Z,-0.59
2017-01-27T06:35:16.943Z,-0.54
2017-01-27T06:36:31.096Z,-0.51
2017-01-27T06:37:45.279Z,-0.51
2017-01-27T06:38:58.743Z,-0.56
2017-01-27T06:40:12.512Z,-0.62
2017-01-27T06:41:25.990Z,-0.59
2017-01-27T06:42:39.839Z,-0.53
2017-01-27T06:43:53.287Z,-0.48
2017-01-27T06:45:07.219Z,-0.57
2017-01-27T06:46:20.922Z,-0.54
2017-01-27T06:47:34.434Z,-0.66
2017-01-27T06:48:47.883Z,-0.7
2017-01-27T06:50:01.375Z,-0.72
2017-01-27T06:51:14.860Z,-0.67
2017-01-27T06:52:28.827Z,-0.77
2017-01-27T06:53:42.262Z,-0.7
2017-01-27T06:54:55.669Z,-0.7
2017-01-27T06:56:09.519Z,-0.77
2017-01-27T06:57:23.027Z,-0.74
2017-01-27T06:58:36.745Z,-0.75
2017-01-27T06:59:50.340Z,-0.87
2017-01-27T07:01:16.476Z,-0.74
2017-01-27T07:02:29.970Z,-0.82
2017-01-27T07:04:02.611Z,-0.81
2017-01-27T07:05:16.062Z,-0.77
2017-01-27T07:06:29.461Z,-0.81
2017-01-27T07:07:42.950Z,-0.85
2017-01-27T07:08:56.363Z,-0.84
2017-01-27T07:10:10.076Z,-0.78
2017-01-27T07:11:25.690Z,-0.82
2017-01-27T07:12:39.170Z,-0.87
2017-01-27T07:13:52.981Z,-0.85
2017-01-27T07:15:06.404Z,-0.93
2017-01-27T07:16:20.146Z,-0.84
2017-01-27T07:17:33.606Z,-0.81
2017-01-27T07:18:58.235Z,-0.77
2017-01-27T07:20:11.676Z,-0.7
2017-01-27T07:21:25.098Z,-0.81
2017-01-27T07:22:38.804Z,-0.7
2017-01-27T07:23:52.835Z,-0.8
2017-01-27T07:25:06.344Z,-0.72
2017-01-27T07:26:19.909Z,-0.81
2017-01-27T07:27:33.413Z,-0.7
2017-01-27T07:28:47.208Z,-0.67
2017-01-27T07:30:00.627Z,-0.72
2017-01-27T07:31:14.220Z,-0.72
2017-01-27T07:32:28.144Z,-0.56
2017-01-27T07:33:43.445Z,-0.6
2017-01-27T07:34:57.347Z,-0.59
2017-01-27T07:36:11.255Z,-0.57
2017-01-27T07:37:25.232Z,-0.54
2017-01-27T07:38:38.902Z,-0.23
2017-01-27T07:39:52.479Z,-0.07
2017-01-27T07:41:06.732Z,0.02
2017-01-27T07:42:20.313Z,-0.12
2017-01-27T07:43:33.909Z,-0.21
2017-01-27T07:44:47.566Z,-0.21
2017-01-27T07:46:01.547Z,-0.18
2017-01-27T07:47:15.743Z,-0.24
2017-01-27T07:48:29.253Z,-0.27
2017-01-27T07:49:44.193Z,-0.2
2017-01-27T07:50:58.421Z,-0.21
2017-01-27T07:52:12.674Z,-0.2
2017-01-27T07:53:26.512Z,-0.05
2017-01-27T07:54:41.431Z,0
2017-01-27T07:55:55.144Z,-0.05
2017-01-27T07:57:10.314Z,0.02
2017-01-27T07:58:24.041Z,0.05
2017-01-27T07:59:38.222Z,0.05
2017-01-27T08:00:52.791Z,0.13
2017-01-27T08:02:07.243Z,0.12
2017-01-27T08:03:20.937Z,0.27
2017-01-27T08:04:34.509Z,0.27
2017-01-27T08:05:48.528Z,0.33
2017-01-27T08:07:02.664Z,0.31
2017-01-27T08:08:16.356Z,0.29
2017-01-27T08:09:29.839Z,0.33
2017-01-27T08:10:43.512Z,0.33
2017-01-27T08:11:57.417Z,0.27
2017-01-27T08:13:11.323Z,0.34
2017-01-27T08:14:24.874Z,0.4
2017-01-27T08:15:40.597Z,0.39
2017-01-27T08:16:54.159Z,0.4
2017-01-27T08:18:09.015Z,0.37
2017-01-27T08:19:22.786Z,0.34
2017-01-27T08:20:36.425Z,0.45
2017-01-27T08:21:50.225Z,0.33
2017-01-27T08:23:03.784Z,0.37
2017-01-27T08:24:18.610Z,0.39
2017-01-27T08:25:32.637Z,0.31
2017-01-27T08:26:46.237Z,0.48
2017-01-27T08:28:02.009Z,0.34
2017-01-27T08:29:16.004Z,0.42
2017-01-27T08:30:33.090Z,0.37
2017-01-27T08:31:47.185Z,0.36
2017-01-27T08:33:01.087Z,0.26
2017-01-27T08:34:14.772Z,0.33
2017-01-27T08:35:28.907Z,0.31
2017-01-27T08:36:43.973Z,0.29
2017-01-27T08:37:57.513Z,0.37
2017-01-27T08:39:11.507Z,0.45
2017-01-27T08:40:25.150Z,0.55
2017-01-27T08:41:39.070Z,0.67
2017-01-27T08:42:52.856Z,0.64
2017-01-27T08:44:06.375Z,0.4
2017-01-27T08:45:20.001Z,0.36
2017-01-27T08:46:33.914Z,0.23
2017-01-27T08:47:48.746Z,0.34
2017-01-27T08:49:02.888Z,0.44
2017-01-27T08:50:16.349Z,0.56
2017-01-27T08:51:29.869Z,0.64
2017-01-27T08:52:43.418Z,0.68
2017-01-27T08:53:56.960Z,0.66
2017-01-27T08:55:10.774Z,0.68
2017-01-27T08:56:24.639Z,0.71
2017-01-27T08:57:39.367Z,0.76
2017-01-27T08:58:52.837Z,0.88
2017-01-27T09:00:06.712Z,0.96
2017-01-27T09:01:20.451Z,1
2017-01-27T09:02:34.486Z,1
2017-01-27T09:03:48.422Z,1.13
2017-01-27T09:05:01.852Z,1.06
2017-01-27T09:06:16.267Z,1.09
2017-01-27T09:07:30.023Z,1.09
2017-01-27T09:08:43.723Z,1.06
2017-01-27T09:09:57.298Z,0.96
2017-01-27T09:11:11.313Z,0.96
2017-01-27T09:12:25.449Z,0.91
2017-01-27T09:13:39.777Z,0.67
2017-01-27T09:14:53.665Z,0.74
2017-01-27T09:16:07.260Z,0.74
2017-01-27T09:17:21.257Z,0.73
2017-01-27T09:18:34.838Z,0.74
2017-01-27T09:19:48.822Z,0.73
2017-01-27T09:21:02.460Z,0.81
2017-01-27T09:22:16.032Z,0.7
2017-01-27T09:23:29.590Z,0.74
2017-01-27T09:24:43.133Z,0.74
2017-01-27T09:25:57.445Z,0.88
2017-01-27T09:27:11.635Z,0.85
2017-01-27T09:28:25.486Z,1.1
2017-01-27T09:29:39.485Z,1.13
2017-01-27T09:30:52.942Z,1.2
2017-01-27T09:32:06.708Z,1.32
2017-01-27T09:33:20.230Z,1.43
2017-01-27T09:34:33.737Z,1.42
2017-01-27T09:35:47.335Z,1.36
2017-01-27T09:37:00.840Z,1.36
2017-01-27T09:38:14.662Z,1.46
2017-01-27T09:39:28.143Z,1.4
2017-01-27T09:40:41.775Z,1.39
2017-01-27T09:41:55.287Z,1.5
2017-01-27T09:43:09.619Z,1.39
2017-01-27T09:44:26.576Z,1.4
2017-01-27T09:45:40.221Z,1.53
2017-01-27T09:46:54.063Z,1.36
2017-01-27T09:48:07.932Z,1.53
2017-01-27T09:49:21.777Z,1.45
2017-01-27T09:50:36.028Z,1.56
2017-01-27T09:51:49.481Z,1.6
2017-01-27T09:53:02.939Z,1.57
2017-01-27T09:54:16.803Z,1.61
2017-01-27T09:55:30.273Z,1.58
2017-01-27T09:56:44.085Z,1.6
2017-01-27T09:57:57.542Z,1.66
2017-01-27T09:59:11.443Z,1.76
2017-01-27T10:00:24.880Z,1.88
2017-01-27T10:01:38.366Z,1.89
2017-01-27T10:02:52.669Z,1.86
2017-01-27T10:04:06.157Z,1.85
2017-01-27T10:05:19.749Z,2.01
2017-01-27T10:06:34.086Z,2.01
2017-01-27T10:07:48.360Z,1.97
2017-01-27T10:09:02.154Z,2.08
2017-01-27T10:10:15.682Z,2.18
2017-01-27T10:11:32.282Z,2.22
2017-01-27T10:12:45.735Z,2.26
2017-01-27T10:13:59.645Z,2.21
2017-01-27T10:15:13.768Z,2.25
2017-01-27T10:16:27.264Z,2.28
2017-01-27T10:17:40.769Z,2.4
2017-01-27T10:18:54.215Z,2.34
2017-01-27T10:20:08.518Z,2.3
2017-01-27T10:21:22.298Z,2.41
2017-01-27T10:22:35.886Z,2.4
2017-01-27T10:23:49.530Z,2.33
2017-01-27T10:25:03.004Z,2.34
2017-01-27T10:26:16.871Z,2.39
2017-01-27T10:27:30.679Z,2.33
2017-01-27T10:28:44.169Z,2.37
2017-01-27T10:29:58.024Z,2.15
2017-01-27T10:31:11.489Z,2.4
2017-01-27T10:32:24.943Z,2.37
2017-01-27T10:33:39.227Z,2.39
2017-01-27T10:34:53.115Z,2.36
2017-01-27T10:36:06.593Z,2.47
2017-01-27T10:37:20.196Z,2.65
2017-01-27T10:38:34.117Z,2.73
2017-01-27T10:39:47.838Z,2.65
2017-01-27T10:41:01.295Z,2.7
2017-01-27T10:42:14.753Z,2.98
2017-01-27T10:43:28.270Z,3.05
2017-01-27T10:44:43.020Z,2.98
2017-01-27T10:45:56.764Z,2.98
2017-01-27T10:47:10.261Z,2.88
2017-01-27T10:48:30.040Z,2.8
2017-01-27T10:49:44.005Z,2.8
2017-01-27T10:50:57.506Z,2.82
2017-01-27T10:52:11.647Z,2.93
2017-01-27T10:53:25.055Z,2.94
2017-01-27T10:54:38.563Z,2.94
2017-01-27T10:55:52.044Z,3.01
2017-01-27T10:57:05.959Z,3.01
2017-01-27T10:58:19.764Z,3.06
2017-01-27T10:59:33.298Z,3.22
2017-01-27T11:00:48.924Z,3.33
2017-01-27T11:02:02.461Z,3.24
2017-01-27T11:03:15.963Z,3.37
2017-01-27T11:04:31.099Z,3.41
2017-01-27T11:05:44.595Z,3.4
2017-01-27T11:06:58.198Z,3.12
2017-01-27T11:08:12.210Z,3.12
2017-01-27T11:09:25.715Z,3.13
2017-01-27T11:10:39.522Z,3.16
2017-01-27T11:11:53.431Z,3.26
2017-01-27T11:13:07.006Z,3.41
2017-01-27T11:14:20.875Z,3.46
2017-01-27T11:15:35.691Z,3.33
2017-01-27T11:16:50.044Z,3.22
2017-01-27T11:18:03.915Z,3.31
2017-01-27T11:19:17.374Z,3.36
2017-01-27T11:20:31.282Z,3.4
2017-01-27T11:21:44.739Z,3.41
2017-01-27T11:22:58.927Z,3.56
2017-01-27T11:24:12.398Z,3.4
2017-01-27T11:25:26.273Z,3.43
2017-01-27T11:26:39.823Z,3.41
2017-01-27T11:27:53.343Z,3.48
2017-01-27T11:29:07.497Z,3.58
2017-01-27T11:30:20.993Z,3.73
2017-01-27T11:31:34.602Z,3.67
2017-01-27T11:32:48.042Z,3.68
2017-01-27T11:34:01.516Z,3.74
2017-01-27T11:35:34.902Z,3.71
2017-01-27T11:36:48.414Z,3.73
2017-01-27T11:38:01.890Z,3.68
2017-01-27T11:39:15.794Z,3.63
2017-01-27T11:40:29.627Z,3.61
2017-01-27T11:41:43.291Z,3.48
2017-01-27T11:42:56.741Z,3.68
2017-01-27T11:44:11.105Z,3.76
2017-01-27T11:45:24.602Z,3.74
2017-01-27T11:46:38.048Z,3.74
2017-01-27T11:48:23.817Z,3.77
2017-01-27T11:49:37.287Z,3.67
2017-01-27T11:50:51.486Z,3.77
2017-01-27T11:52:05.362Z,3.84
2017-01-27T11:53:18.921Z,3.82
2017-01-27T11:54:32.428Z,3.68
2017-01-27T11:55:45.836Z,3.73
2017-01-27T11:56:59.593Z,3.94
2017-01-27T11:58:13.326Z,4.04
2017-01-27T11:59:27.291Z,4.22
2017-01-27T12:00:41.039Z,4
2017-01-27T12:01:54.530Z,3.99
2017-01-27T12:03:08.540Z,3.94
2017-01-27T12:04:22.334Z,3.96
2017-01-27T12:05:36.269Z,3.95
2017-01-27T12:06:49.912Z,4.02
2017-01-27T12:08:04.958Z,4.06
2017-01-27T12:09:19.284Z,4.14
2017-01-27T12:10:33.182Z,4.07
2017-01-27T12:11:46.925Z,4.24
2017-01-27T12:13:01.237Z,4.27
2017-01-27T12:14:14.874Z,4.25
2017-01-27T12:15:29.302Z,4.1
2017-01-27T12:16:43.473Z,4.07
2017-01-27T12:17:59.335Z,4.25
2017-01-27T12:19:13.340Z,4.31
2017-01-27T12:20:27.333Z,4.28
2017-01-27T12:21:40.837Z,4.13
2017-01-27T12:22:54.606Z,4.12
2017-01-27T12:24:09.250Z,4.18
2017-01-27T12:25:22.677Z,4.28
2017-01-27T12:26:36.190Z,4.42
2017-01-27T12:27:50.472Z,4.36
2017-01-27T12:29:19.174Z,4.49
2017-01-27T12:30:32.710Z,4.31
2017-01-27T12:31:46.240Z,4.34
2017-01-27T12:32:59.702Z,4.24
2017-01-27T12:34:14.070Z,4.36
2017-01-27T12:35:27.885Z,4.49
2017-01-27T12:36:41.507Z,4.56
2017-01-27T12:37:55.443Z,4.52
2017-01-27T12:39:09.397Z,4.48
2017-01-27T12:40:23.385Z,4.46
2017-01-27T12:41:37.124Z,4.5
2017-01-27T12:42:50.769Z,4.43
2017-01-27T12:44:04.775Z,4.52
2017-01-27T12:45:18.736Z,4.52
2017-01-27T12:46:32.683Z,4.53
2017-01-27T12:47:46.454Z,4.5
2017-01-27T12:48:59.945Z,4.5
2017-01-27T12:50:13.527Z,4.56
2017-01-27T12:51:27.040Z,4.57
2017-01-27T12:52:40.608Z,4.56
2017-01-27T12:53:54.405Z,4.66
2017-01-27T12:55:08.660Z,4.56
2017-01-27T12:56:22.276Z,4.5
2017-01-27T12:57:36.172Z,4.57
2017-01-27T12:58:49.594Z,4.57
2017-01-27T13:00:03.798Z,4.6
2017-01-27T13:01:17.289Z,4.58
2017-01-27T13:02:30.947Z,4.64
2017-01-27T13:03:44.584Z,4.58
2017-01-27T13:04:58.078Z,4.67
2017-01-27T13:06:12.890Z,4.64
2017-01-27T13:07:26.445Z,4.6
2017-01-27T13:08:40.428Z,4.53
2017-01-27T13:09:54.077Z,4.5
2017-01-27T13:11:07.687Z,4.53
2017-01-27T13:12:21.749Z,4.58
2017-01-27T13:13:35.241Z,4.61
2017-01-27T13:14:51.044Z,4.63
2017-01-27T13:16:04.561Z,4.68
2017-01-27T13:17:18.993Z,4.78
2017-01-27T13:18:32.764Z,4.86
2017-01-27T13:19:46.261Z,4.84
2017-01-27T13:20:59.699Z,4.86
2017-01-27T13:22:28.097Z,4.87
2017-01-27T13:23:42.714Z,4.84
2017-01-27T13:24:56.516Z,4.86
2017-01-27T13:26:10.043Z,4.79
2017-01-27T13:27:24.942Z,4.78
2017-01-27T13:28:38.533Z,4.75
2017-01-27T13:29:52.397Z,4.74
2017-01-27T13:31:05.994Z,4.84
2017-01-27T13:32:20.151Z,4.87
2017-01-27T13:33:34.681Z,4.76
2017-01-27T13:34:50.845Z,4.74
2017-01-27T13:36:05.125Z,4.9
2017-01-27T13:37:19.085Z,4.9
2017-01-27T13:38:34.334Z,4.83
2017-01-27T13:39:48.468Z,4.95
2017-01-27T13:41:02.494Z,4.98
2017-01-27T13:42:16.344Z,4.97
2017-01-27T13:43:30.823Z,4.95
2017-01-27T13:44:44.334Z,4.9
2017-01-27T13:45:57.892Z,5.04
2017-01-27T13:47:11.382Z,4.97
2017-01-27T13:48:25.264Z,5.01
2017-01-27T13:49:39.201Z,4.95
2017-01-27T13:50:53.187Z,4.94
2017-01-27T13:52:07.065Z,4.89
2017-01-27T13:53:20.609Z,4.86
2017-01-27T13:54:34.912Z,4.86
2017-01-27T13:55:48.431Z,4.66
2017-01-27T13:57:02.339Z,4.68
2017-01-27T13:58:15.860Z,4.82
2017-01-27T13:59:29.882Z,4.68
2017-01-27T14:00:43.764Z,4.58
2017-01-27T14:01:57.267Z,4.6
2017-01-27T14:03:11.480Z,4.56
2017-01-27T14:04:25.372Z,4.6
2017-01-27T14:05:40.277Z,4.56
2017-01-27T14:06:54.468Z,4.53
2017-01-27T14:08:08.012Z,4.57
2017-01-27T14:09:21.588Z,4.5
2017-01-27T14:10:35.710Z,4.53
2017-01-27T14:11:49.473Z,4.6
2017-01-27T14:13:03.692Z,4.58
2017-01-27T14:14:17.197Z,4.56
2017-01-27T14:15:32.074Z,4.64
2017-01-27T14:16:45.895Z,4.66
2017-01-27T14:18:00.136Z,4.58
2017-01-27T14:19:14.225Z,4.6
2017-01-27T14:20:27.830Z,4.57
2017-01-27T14:21:41.429Z,4.52
2017-01-27T14:22:55.075Z,4.61
2017-01-27T14:24:09.789Z,4.58
2017-01-27T14:25:24.167Z,4.53
2017-01-27T14:26:38.953Z,4.61
2017-01-27T14:27:53.231Z,4.58
2017-01-27T14:29:07.304Z,4.61
2017-01-27T14:30:21.019Z,4.66
2017-01-27T14:31:35.123Z,4.79
2017-01-27T14:32:48.802Z,4.78
2017-01-27T14:34:02.460Z,4.86
2017-01-27T14:35:16.456Z,4.95
2017-01-27T14:36:31.524Z,4.84
2017-01-27T14:37:46.099Z,4.87
2017-01-27T14:39:00.076Z,4.89
2017-01-27T14:40:14.011Z,4.84
2017-01-27T14:41:27.682Z,4.78
2017-01-27T14:42:41.613Z,4.89
2017-01-27T14:43:55.533Z,4.86
2017-01-27T14:45:09.440Z,4.87
2017-01-27T14:46:22.983Z,4.9
2017-01-27T14:47:36.806Z,4.86
2017-01-27T14:48:50.434Z,4.94
2017-01-27T14:50:04.533Z,4.78
2017-01-27T14:51:20.804Z,4.92
2017-01-27T14:52:34.477Z,4.83
2017-01-27T14:53:48.222Z,4.86
2017-01-27T14:55:01.823Z,4.89
2017-01-27T14:56:15.976Z,4.75
2017-01-27T14:57:30.921Z,4.83
2017-01-27T14:58:45.190Z,4.76
2017-01-27T15:00:00.464Z,4.86
2017-01-27T15:01:14.154Z,4.87
2017-01-27T15:02:28.664Z,4.89
2017-01-27T15:03:42.711Z,4.84
2017-01-27T15:04:57.084Z,4.87
2017-01-27T15:06:10.532Z,4.87
2017-01-27T15:07:24.144Z,4.76
2017-01-27T15:08:39.365Z,4.75
2017-01-27T15:09:53.776Z,4.84
2017-01-27T15:11:08.583Z,4.86
2017-01-27T15:12:22.105Z,4.87
2017-01-27T15:13:36.266Z,4.87
2017-01-27T15:14:50.433Z,4.83
2017-01-27T15:16:04.174Z,4.95
2017-01-27T15:17:18.240Z,4.9
2017-01-27T15:18:31.995Z,4.82
2017-01-27T15:19:45.545Z,4.75
2017-01-27T15:20:59.328Z,4.76
2017-01-27T15:22:13.202Z,4.76
2017-01-27T15:23:27.256Z,4.66
2017-01-27T15:24:41.194Z,4.64
2017-01-27T15:25:55.083Z,4.68
2017-01-27T15:27:08.872Z,4.67
2017-01-27T15:28:22.786Z,4.71
2017-01-27T15:29:37.977Z,4.68
2017-01-27T15:30:51.477Z,4.68
2017-01-27T15:32:04.974Z,4.64
2017-01-27T15:33:19.303Z,4.64
2017-01-27T15:34:33.389Z,4.66
2017-01-27T15:35:51.722Z,4.61
2017-01-27T15:37:13.181Z,4.57
2017-01-27T15:38:28.429Z,4.5
2017-01-27T15:39:42.717Z,4.52
2017-01-27T15:40:56.327Z,4.49
2017-01-27T15:42:10.753Z,4.52
2017-01-27T15:43:25.086Z,4.48
2017-01-27T15:44:39.046Z,4.5
2017-01-27T15:45:53.249Z,4.58
2017-01-27T15:47:06.779Z,4.56
2017-01-27T15:48:23.365Z,4.46
2017-01-27T15:49:37.849Z,4.43
2017-01-27T15:50:51.391Z,4.43
2017-01-27T15:52:05.701Z,4.49
2017-01-27T15:53:19.854Z,4.46
2017-01-27T15:54:33.888Z,4.5
2017-01-27T15:55:47.717Z,4.5
2017-01-27T15:57:01.833Z,4.48
2017-01-27T15:58:16.086Z,4.46
2017-01-27T15:59:30.657Z,4.48
2017-01-27T16:00:45.145Z,4.46
2017-01-27T16:01:59.820Z,4.36
2017-01-27T16:03:14.311Z,4.3
2017-01-27T16:04:30.901Z,4.38
2017-01-27T16:05:47.039Z,4.36
2017-01-27T16:07:01.065Z,4.32
2017-01-27T16:08:24.055Z,4.42
2017-01-27T16:09:40.852Z,4.22
2017-01-27T16:10:57.853Z,4.36
2017-01-27T16:12:11.435Z,4.27
2017-01-27T16:13:26.427Z,4.12
2017-01-27T16:14:40.361Z,4.12
2017-01-27T16:15:54.178Z,4.25
2017-01-27T16:17:08.171Z,4.21
2017-01-27T16:18:22.250Z,4.09